Time;durP1;ratioP1;P1;durP2;ratioP2;P2;SDS_P1;SDS_P2;PMS_P1;PMS_P2;Temp;Humidity;BMP_temperature;BMP_pressure;BME280_temperature;BME280_humidity;BME280_pressure;Samples;Min_cycle;Max_cycle;Signal;HPM_P1;HPM_P2
2022/09/12 00:00:24;;;;;;;;;;;;;;;10.44;100.00;96102.03;1046841;28;19909;-66
2022/09/12 00:01:05;;;;;;;;;;;;;;;10.43;100.00;96105.72;1051097;28;20237;-66
2022/09/12 00:01:35;;;;;;;;;;;;;;;10.43;100.00;96102.25;1048144;28;19923;-66
2022/09/12 00:02:06;;;;;;;;;;;;;;;10.43;100.00;96104.88;1046896;28;19959;-66
2022/09/12 00:02:36;;;;;;;;;;;;;;;10.43;100.00;96104.88;1042684;28;20008;-66
2022/09/12 00:03:06;;;;;;;;;;;;;;;10.42;100.00;96108.56;1045766;28;19909;-66
2022/09/12 00:03:37;;;;;;;;;;;;;;;10.42;100.00;96098.84;1046614;28;19916;-66
2022/09/12 00:04:08;;;;;;;;;;;;;;;10.42;100.00;96098.06;1051197;28;19949;-66
2022/09/12 00:04:39;;;;;;;;;;;;;;;10.40;100.00;96100.97;1050775;28;19907;-65
2022/09/12 00:05:09;;;;;;;;;;;;;;;10.40;100.00;96102.78;1050683;28;20430;-66
2022/09/12 00:05:40;;;;;;;;;;;;;;;10.39;100.00;96094.13;1050579;28;20577;-66
2022/09/12 00:06:12;;;;;;;;;;;;;;;10.40;100.00;96093.09;1050905;28;19912;-66
2022/09/12 00:06:42;;;;;;;;;;;;;;;10.39;100.00;96096.72;1050841;28;19903;-65
2022/09/12 00:07:12;;;;;;;;;;;;;;;10.36;100.00;96100.69;1046823;28;19904;-66
2022/09/12 00:07:42;;;;;;;;;;;;;;;10.35;100.00;96101.69;1050828;28;19908;-67
2022/09/12 00:08:13;;;;;;;;;;;;;;;10.34;100.00;96101.97;1051118;28;20362;-66
2022/09/12 00:08:43;;;;;;;;;;;;;;;10.32;100.00;96099.56;1051015;28;19975;-66
2022/09/12 00:09:14;;;;;;;;;;;;;;;10.33;100.00;96097.75;1051224;28;20292;-66
2022/09/12 00:09:44;;;;;;;;;;;;;;;10.34;100.00;96101.97;1046465;28;19904;-66
2022/09/12 00:10:15;;;;;;;;;;;;;;;10.33;100.00;96106.41;1046942;28;19916;-66
2022/09/12 00:10:45;;;;;;;;;;;;;;;10.31;100.00;96102.47;1046859;28;19927;-66
2022/09/12 00:11:15;;;;;;;;;;;;;;;10.31;100.00;96097.22;1046853;28;19979;-67
2022/09/12 00:11:46;;;;;;;;;;;;;;;10.29;100.00;96100.06;1046699;28;19909;-66
2022/09/12 00:12:16;;;;;;;;;;;;;;;10.29;100.00;96099.28;1042940;28;19908;-66
2022/09/12 00:12:46;;;;;;;;;;;;;;;10.30;100.00;96100.88;1051122;28;20408;-66
2022/09/12 00:13:17;;;;;;;;;;;;;;;10.29;100.00;96104.53;1051072;28;19900;-66
2022/09/12 00:13:47;;;;;;;;;;;;;;;10.28;100.00;96103.75;1050746;28;19908;-68
2022/09/12 00:14:17;;;;;;;;;;;;;;;10.27;100.00;96104.00;1051330;28;19946;-65
2022/09/12 00:14:47;;;;;;;;;;;;;;;10.27;100.00;96098.75;1052104;28;19912;-66
2022/09/12 00:15:18;;;;;;;;;;;;;;;10.26;100.00;96100.59;1051235;28;19950;-67
2022/09/12 00:15:48;;;;;;;;;;;;;;;10.28;100.00;96097.72;1051610;28;19908;-66
2022/09/12 00:16:19;;;;;;;;;;;;;;;10.34;100.00;96096.72;1052119;28;20174;-66
2022/09/12 00:16:50;;;;;;;;;;;;;;;10.32;100.00;96106.66;1047485;28;19911;-66
2022/09/12 00:17:20;;;;;;;;;;;;;;;10.30;100.00;96095.66;1043691;28;19912;-66
2022/09/12 00:17:50;;;;;;;;;;;;;;;10.34;100.00;96101.97;1043465;28;20397;-67
2022/09/12 00:18:21;;;;;;;;;;;;;;;10.35;100.00;96100.91;1043689;28;20348;-64
2022/09/12 00:18:52;;;;;;;;;;;;;;;10.39;100.00;96104.59;1043598;28;20231;-66
2022/09/12 00:19:22;;;;;;;;;;;;;;;10.43;100.00;96097.03;1047641;28;19954;-64
2022/09/12 00:19:52;;;;;;;;;;;;;;;10.48;100.00;96102.31;1047608;28;19908;-66
2022/09/12 00:20:23;;;;;;;;;;;;;;;10.48;100.00;96094.44;1047606;28;19908;-65
2022/09/12 00:20:53;;;;;;;;;;;;;;;10.48;100.00;96095.22;1051846;28;19908;-66
2022/09/12 00:21:23;;;;;;;;;;;;;;;10.47;100.00;96104.16;1051870;28;20423;-66
2022/09/12 00:21:53;;;;;;;;;;;;;;;10.49;100.00;96094.19;1051927;28;19908;-64
2022/09/12 00:22:24;;;;;;;;;;;;;;;10.50;100.00;96095.78;1051589;28;20151;-64
2022/09/12 00:22:54;;;;;;;;;;;;;;;10.49;100.00;96098.63;1051939;28;19904;-64
2022/09/12 00:23:24;;;;;;;;;;;;;;;10.50;100.00;96095.00;1051838;28;19915;-63
2022/09/12 00:23:55;;;;;;;;;;;;;;;10.50;100.00;96095.78;1051563;28;19990;-64
2022/09/12 00:24:25;;;;;;;;;;;;;;;10.48;100.00;96095.22;1051684;28;19908;-64
2022/09/12 00:24:56;;;;;;;;;;;;;;;10.49;100.00;96093.38;1051678;28;19908;-64
2022/09/12 00:25:26;;;;;;;;;;;;;;;10.49;100.00;96096.81;1050971;28;20433;-65
2022/09/12 00:25:56;;;;;;;;;;;;;;;10.50;100.00;96089.75;1051853;28;19908;-67
2022/09/12 00:26:27;;;;;;;;;;;;;;;10.49;100.00;96091.56;1051579;28;20012;-66
2022/09/12 00:26:57;;;;;;;;;;;;;;;10.51;100.00;96096.56;1047481;28;19911;-66
2022/09/12 00:27:27;;;;;;;;;;;;;;;10.49;100.00;96096.00;1051604;28;19912;-67
2022/09/12 00:27:58;;;;;;;;;;;;;;;10.50;100.00;96098.41;1047457;28;19909;-65
2022/09/12 00:28:28;;;;;;;;;;;;;;;10.49;100.00;96093.38;1047475;28;19912;-67
2022/09/12 00:28:58;;;;;;;;;;;;;;;10.50;100.00;96090.53;1051422;28;19914;-67
2022/09/12 00:29:29;;;;;;;;;;;;;;;10.48;100.00;96087.34;1047465;28;20369;-65
2022/09/12 00:30:00;;;;;;;;;;;;;;;10.48;100.00;96095.22;1051740;28;19955;-68
2022/09/12 00:30:30;;;;;;;;;;;;;;;10.47;100.00;96087.63;1047135;28;19916;-66
2022/09/12 00:31:02;;;;;;;;;;;;;;;10.45;100.00;96090.47;1047704;28;20379;-65
2022/09/12 00:31:32;;;;;;;;;;;;;;;10.44;100.00;96091.53;1047498;28;20432;-64
2022/09/12 00:32:03;;;;;;;;;;;;;;;10.43;100.00;96087.34;1043380;28;19908;-66
2022/09/12 00:32:33;;;;;;;;;;;;;;;10.47;100.00;96091.03;1043160;28;19962;-65
2022/09/12 00:33:04;;;;;;;;;;;;;;;10.46;100.00;96084.22;1039057;28;19909;-65
2022/09/12 00:33:34;;;;;;;;;;;;;;;10.47;100.00;96085.78;1039102;28;19932;-66
2022/09/12 00:34:04;;;;;;;;;;;;;;;10.50;100.00;96089.75;1039418;28;19963;-65
2022/09/12 00:34:35;;;;;;;;;;;;;;;10.49;100.00;96088.94;1038237;28;19971;-65
2022/09/12 00:35:05;;;;;;;;;;;;;;;10.50;100.00;96087.13;1042974;28;20435;-67
2022/09/12 00:35:45;;;;;;;;;;;;;;;10.51;100.00;96088.69;1043577;28;20047;-65
2022/09/12 00:36:17;;;;;;;;;;;;;;;10.52;100.00;96088.44;1041093;28;20001;-66
2022/09/12 00:36:47;;;;;;;;;;;;;;;10.57;100.00;96085.84;1044706;28;19904;-65
2022/09/12 00:37:17;;;;;;;;;;;;;;;10.57;100.00;96096.34;1051647;28;19900;-66
2022/09/12 00:37:48;;;;;;;;;;;;;;;10.56;100.00;96089.53;1047607;28;19999;-66
2022/09/12 00:38:18;;;;;;;;;;;;;;;10.59;100.00;96083.75;1051887;28;19969;-66
2022/09/12 00:38:48;;;;;;;;;;;;;;;10.58;100.00;96084.00;1055692;28;19907;-66
2022/09/12 00:39:19;;;;;;;;;;;;;;;10.57;100.00;96083.22;1047517;28;20290;-67
2022/09/12 00:39:49;;;;;;;;;;;;;;;10.56;100.00;96086.91;1051721;28;19971;-66
2022/09/12 00:40:19;;;;;;;;;;;;;;;10.58;100.00;96092.66;1051863;28;19908;-66
2022/09/12 00:40:50;;;;;;;;;;;;;;;10.60;100.00;96087.97;1051679;28;19908;-67
2022/09/12 00:41:21;;;;;;;;;;;;;;;10.60;100.00;96087.97;1051736;28;19994;-65
2022/09/12 00:41:51;;;;;;;;;;;;;;;10.57;100.00;96085.84;1047650;28;19911;-66
2022/09/12 00:42:22;;;;;;;;;;;;;;;10.59;100.00;96094.25;1047553;28;19904;-66
2022/09/12 00:42:52;;;;;;;;;;;;;;;10.57;100.00;96083.22;1043211;28;19958;-67
2022/09/12 00:43:28;;;;;;;;;;;;;;;10.57;100.00;96085.84;1043419;28;19909;-65
2022/09/12 00:44:11;;;;;;;;;;;;;;;10.54;100.00;96088.97;1043318;28;19958;-64
2022/09/12 00:44:42;;;;;;;;;;;;;;;10.52;100.00;96088.44;1044003;28;19948;-66
2022/09/12 00:45:20;;;;;;;;;;;;;;;10.52;100.00;96088.44;1042541;28;19991;-66
2022/09/12 00:45:50;;;;;;;;;;;;;;;10.52;100.00;96087.66;1043053;28;20348;-66
2022/09/12 00:46:31;;;;;;;;;;;;;;;10.51;100.00;96083.44;1045888;28;19988;-65
2022/09/12 00:47:05;;;;;;;;;;;;;;;10.48;100.00;96087.34;1051408;28;20318;-65
2022/09/12 00:47:35;;;;;;;;;;;;;;;10.47;100.00;96091.03;1049774;28;19927;-66
2022/09/12 00:48:07;;;;;;;;;;;;;;;10.45;100.00;96094.94;1039217;28;20464;-64
2022/09/12 00:48:39;;;;;;;;;;;;;;;10.44;100.00;96088.91;1039884;28;19905;-65
2022/09/12 00:49:14;;;;;;;;;;;;;;;10.43;100.00;96081.28;1035265;28;20320;-64
2022/09/12 00:49:50;;;;;;;;;;;;;;;10.43;100.00;96087.34;1043194;28;20244;-64
2022/09/12 00:50:21;;;;;;;;;;;;;;;10.41;100.00;96089.41;1045179;28;19932;-64
2022/09/12 00:50:51;;;;;;;;;;;;;;;10.39;100.00;96083.63;1043293;28;19905;-66
2022/09/12 00:51:21;;;;;;;;;;;;;;;10.35;100.00;96083.34;1040642;28;19904;-66
2022/09/12 00:51:54;;;;;;;;;;;;;;;10.33;100.00;96080.19;1039217;28;19905;-66
2022/09/12 00:52:39;;;;;;;;;;;;;;;10.32;100.00;96088.28;1039371;28;20397;-65
2022/09/12 00:53:09;;;;;;;;;;;;;;;10.31;100.00;96081.47;1041477;28;19909;-66
2022/09/12 00:53:40;;;;;;;;;;;;;;;10.31;100.00;96081.47;1043605;28;19905;-65
2022/09/12 00:54:11;;;;;;;;;;;;;;;10.29;100.00;96079.09;1038310;28;20458;-66
2022/09/12 00:54:43;;;;;;;;;;;;;;;10.31;100.00;96087.50;1030588;28;19991;-66
2022/09/12 00:55:13;;;;;;;;;;;;;;;10.27;100.00;96080.41;1034562;28;19912;-66
2022/09/12 00:55:45;;;;;;;;;;;;;;;10.26;100.00;96078.81;1035391;28;19913;-66
2022/09/12 00:56:15;;;;;;;;;;;;;;;10.24;100.00;96075.63;1045116;28;20403;-66
2022/09/12 00:56:45;;;;;;;;;;;;;;;10.22;100.00;96075.09;1055872;28;20002;-65
2022/09/12 00:57:15;;;;;;;;;;;;;;;10.21;100.00;96073.50;1060257;27;19904;-67
2022/09/12 00:57:50;;;;;;;;;;;;;;;10.21;100.00;96076.13;1055574;28;19939;-66
2022/09/12 00:58:22;;;;;;;;;;;;;;;10.18;100.00;96072.16;1051788;28;19912;-66
2022/09/12 00:59:04;;;;;;;;;;;;;;;10.18;100.00;96076.63;1051763;28;19904;-66
2022/09/12 00:59:37;;;;;;;;;;;;;;;10.15;100.00;96078.69;1047028;28;19940;-66
2022/09/12 01:00:12;;;;;;;;;;;;;;;10.14;100.00;96071.88;1047591;28;19904;-66
2022/09/12 01:00:42;;;;;;;;;;;;;;;10.12;100.00;96068.72;1043459;28;19978;-64
2022/09/12 01:01:13;;;;;;;;;;;;;;;10.11;100.00;96067.13;1045584;28;20290;-66
2022/09/12 01:01:43;;;;;;;;;;;;;;;10.11;100.00;96072.38;1051367;28;20014;-66
2022/09/12 01:02:13;;;;;;;;;;;;;;;10.10;100.00;96076.06;1047537;28;19956;-66
2022/09/12 01:02:50;;;;;;;;;;;;;;;10.07;100.00;96071.31;1043498;28;20332;-66
2022/09/12 01:03:21;;;;;;;;;;;;;;;10.06;100.00;96066.31;1039331;28;19978;-66
2022/09/12 01:03:51;;;;;;;;;;;;;;;10.04;100.00;96063.94;1040978;28;20421;-67
2022/09/12 01:04:22;;;;;;;;;;;;;;;10.02;100.00;96073.88;1048576;28;19993;-66
2022/09/12 01:04:52;;;;;;;;;;;;;;;10.04;100.00;96068.41;1047337;28;19912;-65
2022/09/12 01:05:22;;;;;;;;;;;;;;;10.01;100.00;96072.31;1046892;28;19916;-66
2022/09/12 01:05:55;;;;;;;;;;;;;;;9.86;100.00;96040.75;1043269;28;19996;-66
2022/09/12 01:06:31;;;;;;;;;;;;;;;9.98;100.00;96062.31;1043728;28;20293;-64
2022/09/12 01:07:01;;;;;;;;;;;;;;;9.97;100.00;96066.00;1044338;28;19951;-66
2022/09/12 01:07:33;;;;;;;;;;;;;;;9.96;100.00;96069.66;1044402;28;20606;-66
2022/09/12 01:08:04;;;;;;;;;;;;;;;9.95;100.00;96068.06;1047242;28;19905;-65
2022/09/12 01:08:36;;;;;;;;;;;;;;;9.98;100.00;96064.94;1043692;28;20092;-64
2022/09/12 01:09:07;;;;;;;;;;;;;;;9.98;100.00;96069.41;1043904;28;20316;-67
2022/09/12 01:09:37;;;;;;;;;;;;;;;9.95;100.00;96068.06;1047483;28;19905;-65
2022/09/12 01:10:08;;;;;;;;;;;;;;;9.93;100.00;96064.13;1043580;28;20457;-66
2022/09/12 01:10:38;;;;;;;;;;;;;;;9.93;100.00;96064.13;1039365;28;19916;-66
2022/09/12 01:11:09;;;;;;;;;;;;;;;9.91;100.00;96061.75;1039337;28;19905;-64
2022/09/12 01:11:39;;;;;;;;;;;;;;;9.89;100.00;96069.88;1035217;28;20363;-66
2022/09/12 01:12:10;;;;;;;;;;;;;;;9.90;100.00;96062.78;1035182;28;19940;-67
2022/09/12 01:12:40;;;;;;;;;;;;;;;9.87;100.00;96066.69;1039028;28;19913;-66
2022/09/12 01:13:11;;;;;;;;;;;;;;;9.86;100.00;96059.09;1032927;28;19941;-66
2022/09/12 01:13:41;;;;;;;;;;;;;;;9.85;100.00;96058.28;1035082;28;19905;-66
2022/09/12 01:14:11;;;;;;;;;;;;;;;9.86;100.00;96065.13;1034948;28;20413;-65
2022/09/12 01:14:42;;;;;;;;;;;;;;;9.84;100.00;96061.94;1043361;28;19905;-68
2022/09/12 01:15:12;;;;;;;;;;;;;;;9.83;100.00;96062.22;1038480;28;19916;-65
2022/09/12 01:15:42;;;;;;;;;;;;;;;9.86;100.00;96066.97;1039140;28;19991;-66
2022/09/12 01:16:13;;;;;;;;;;;;;;;9.84;100.00;96053.31;1035164;28;20421;-66
2022/09/12 01:16:44;;;;;;;;;;;;;;;9.84;100.00;96061.16;1043267;28;19909;-66
2022/09/12 01:17:14;;;;;;;;;;;;;;;9.86;100.00;96059.09;1042464;28;19950;-66
2022/09/12 01:17:50;;;;;;;;;;;;;;;9.86;100.00;96056.47;1035181;28;19905;-65
2022/09/12 01:18:23;;;;;;;;;;;;;;;9.85;100.00;96054.88;1031842;28;20000;-65
2022/09/12 01:19:00;;;;;;;;;;;;;;;9.84;100.00;96058.53;1037072;28;19986;-66
2022/09/12 01:19:30;;;;;;;;;;;;;;;9.85;100.00;96047.00;1035073;28;20480;-65
2022/09/12 01:20:07;;;;;;;;;;;;;;;9.82;100.00;96048.28;1040383;28;20369;-66
2022/09/12 01:20:56;;;;;;;;;;;;;;;9.85;100.00;96055.66;1042415;28;20007;-66
2022/09/12 01:21:45;;;;;;;;;;;;;;;9.84;100.00;96056.72;1042107;28;19918;-66
2022/09/12 01:22:34;;;;;;;;;;;;;;;9.85;100.00;96052.25;1039958;28;19931;-66
2022/09/12 01:23:09;;;;;;;;;;;;;;;9.88;100.00;96051.75;1045322;28;20330;-65
2022/09/12 01:23:52;;;;;;;;;;;;;;;9.87;100.00;96044.94;1051575;28;20377;-65
2022/09/12 01:24:22;;;;;;;;;;;;;;;9.86;100.00;96053.84;1051833;28;20004;-67
2022/09/12 01:25:11;;;;;;;;;;;;;;;9.90;100.00;96047.06;1051497;28;19919;-66
2022/09/12 01:26:00;;;;;;;;;;;;;;;9.94;100.00;96044.72;1051452;28;19904;-67
2022/09/12 01:26:54;;;;;;;;;;;;;;;9.91;100.00;96044.19;1051699;28;19904;-67
2022/09/12 01:27:32;;;;;;;;;;;;;;;9.93;100.00;96043.94;1036327;28;20482;-66
2022/09/12 01:28:12;;;;;;;;;;;;;;;9.92;100.00;96042.34;1039752;28;20390;-65
2022/09/12 01:29:01;;;;;;;;;;;;;;;9.92;100.00;96039.72;1051671;28;19958;-65
2022/09/12 01:29:49;;;;;;;;;;;;;;;9.95;100.00;96041.06;1051676;28;20010;-65
2022/09/12 01:30:23;;;;;;;;;;;;;;;9.95;100.00;96041.84;1048299;28;20361;-66
2022/09/12 01:30:59;;;;;;;;;;;;;;;9.92;100.00;96044.97;1051217;28;19903;-66
2022/09/12 01:31:51;;;;;;;;;;;;;;;9.93;100.00;96038.69;1051781;28;19911;-66
2022/09/12 01:32:27;;;;;;;;;;;;;;;9.91;100.00;96038.16;1051583;28;20452;-66
2022/09/12 01:33:13;;;;;;;;;;;;;;;9.90;100.00;96039.19;1051307;28;19904;-68
2022/09/12 01:33:53;;;;;;;;;;;;;;;9.89;100.00;96041.03;1047448;28;19911;-66
2022/09/12 01:34:41;;;;;;;;;;;;;;;9.87;100.00;96039.69;1047493;28;19908;-65
2022/09/12 01:35:20;;;;;;;;;;;;;;;9.84;100.00;96034.94;1046742;28;19944;-66
2022/09/12 01:35:53;;;;;;;;;;;;;;;9.84;100.00;96045.44;1047228;28;19927;-65
2022/09/12 01:36:35;;;;;;;;;;;;;;;9.81;100.00;96041.47;1051444;28;20003;-67
2022/09/12 01:37:05;;;;;;;;;;;;;;;9.80;100.00;96046.97;1047310;28;19943;-66
2022/09/12 01:37:41;;;;;;;;;;;;;;;9.79;100.00;96037.53;1049533;28;19904;-66
2022/09/12 01:38:14;;;;;;;;;;;;;;;9.76;100.00;96038.00;1047686;28;19900;-66
2022/09/12 01:38:49;;;;;;;;;;;;;;;9.75;100.00;96039.84;1044461;28;19911;-66
2022/09/12 01:39:19;;;;;;;;;;;;;;;9.72;100.00;96042.19;1047103;28;19904;-66
2022/09/12 01:39:52;;;;;;;;;;;;;;;9.68;100.00;96034.03;1048328;28;19905;-66
2022/09/12 01:40:30;;;;;;;;;;;;;;;9.67;100.00;96038.47;1044074;28;19904;-66
2022/09/12 01:41:19;;;;;;;;;;;;;;;9.66;100.00;96039.53;1043131;28;19904;-65
2022/09/12 01:41:53;;;;;;;;;;;;;;;9.64;100.00;96038.19;1043296;28;20309;-65
2022/09/12 01:42:25;;;;;;;;;;;;;;;9.63;100.00;96041.84;1051613;28;19900;-66
2022/09/12 01:43:03;;;;;;;;;;;;;;;9.61;100.00;96038.69;1051583;28;19904;-66
2022/09/12 01:43:34;;;;;;;;;;;;;;;9.61;100.00;96030.81;1046049;28;19904;-66
2022/09/12 01:44:05;;;;;;;;;;;;;;;9.61;100.00;96038.69;1047224;28;19923;-67
2022/09/12 01:44:43;;;;;;;;;;;;;;;9.58;100.00;96029.47;1044728;28;19900;-66
2022/09/12 01:45:16;;;;;;;;;;;;;;;9.55;100.00;96037.84;1047812;28;19991;-65
2022/09/12 01:46:07;;;;;;;;;;;;;;;9.55;100.00;96037.06;1046767;28;19958;-66
2022/09/12 01:46:48;;;;;;;;;;;;;;;9.53;100.00;96039.94;1039166;28;19905;-66
2022/09/12 01:47:22;;;;;;;;;;;;;;;9.50;100.00;96032.56;1039824;28;20011;-68
2022/09/12 01:47:58;;;;;;;;;;;;;;;9.47;100.00;96038.31;1042988;28;19905;-66
2022/09/12 01:48:30;;;;;;;;;;;;;;;9.44;100.00;96036.97;1037112;28;19912;-68
2022/09/12 01:49:01;;;;;;;;;;;;;;;9.44;100.00;96036.97;1040662;28;19905;-65
2022/09/12 01:49:32;;;;;;;;;;;;;;;9.42;100.00;96039.06;1043328;28;19905;-66
2022/09/12 01:50:05;;;;;;;;;;;;;;;9.42;100.00;96033.00;1042974;28;19901;-65
2022/09/12 01:50:39;;;;;;;;;;;;;;;9.41;100.00;96040.06;1039093;28;19947;-66
2022/09/12 01:51:16;;;;;;;;;;;;;;;9.40;100.00;96035.09;1039789;28;19905;-66
2022/09/12 01:51:52;;;;;;;;;;;;;;;9.40;100.00;96032.47;1040845;28;19905;-67
2022/09/12 01:52:28;;;;;;;;;;;;;;;9.40;100.00;96032.47;1041272;28;19948;-64
2022/09/12 01:52:59;;;;;;;;;;;;;;;9.39;100.00;96033.53;1044419;28;19961;-67
2022/09/12 01:53:32;;;;;;;;;;;;;;;9.40;100.00;96037.72;1044915;28;19994;-66
2022/09/12 01:54:06;;;;;;;;;;;;;;;9.37;100.00;96027.72;1038394;28;19909;-66
2022/09/12 01:54:50;;;;;;;;;;;;;;;9.36;100.00;96026.16;1038913;28;20426;-66
2022/09/12 01:55:43;;;;;;;;;;;;;;;9.35;100.00;96032.41;1036882;28;19906;-66
2022/09/12 01:56:21;;;;;;;;;;;;;;;9.35;100.00;96024.56;1029395;28;19906;-66
2022/09/12 01:56:52;;;;;;;;;;;;;;;9.34;100.00;96025.59;1043072;28;19905;-66
2022/09/12 01:57:32;;;;;;;;;;;;;;;9.34;100.00;96022.97;1043260;28;20544;-66
2022/09/12 01:58:06;;;;;;;;;;;;;;;9.30;100.00;96027.13;1042061;28;19901;-66
2022/09/12 01:58:49;;;;;;;;;;;;;;;9.31;100.00;96026.09;1041104;28;19904;-66
2022/09/12 01:59:32;;;;;;;;;;;;;;;9.29;100.00;96023.72;1046750;28;20488;-66
2022/09/12 02:00:04;;;;;;;;;;;;;;;9.27;100.00;96020.56;1046808;28;19911;-65
2022/09/12 02:00:36;;;;;;;;;;;;;;;9.27;100.00;96025.00;1046824;28;20349;-67
2022/09/12 02:01:08;;;;;;;;;;;;;;;9.27;100.00;96022.38;1047029;28;20599;-66
2022/09/12 02:01:40;;;;;;;;;;;;;;;9.26;100.00;96026.84;1038178;28;20031;-66
2022/09/12 02:02:15;;;;;;;;;;;;;;;9.24;100.00;96020.25;1039433;28;20383;-67
2022/09/12 02:02:50;;;;;;;;;;;;;;;9.23;100.00;96022.09;1038899;28;20655;-66
2022/09/12 02:03:25;;;;;;;;;;;;;;;9.23;100.00;96019.47;1038908;28;20218;-65
2022/09/12 02:04:02;;;;;;;;;;;;;;;9.25;100.00;96024.44;1035011;28;20298;-66
2022/09/12 02:04:34;;;;;;;;;;;;;;;9.24;100.00;96020.25;1032642;28;19917;-66
2022/09/12 02:05:07;;;;;;;;;;;;;;;9.23;100.00;96023.94;1032225;28;19906;-64
2022/09/12 02:05:39;;;;;;;;;;;;;;;9.23;100.00;96023.94;1036319;28;19912;-66
2022/09/12 02:06:12;;;;;;;;;;;;;;;9.23;100.00;96023.94;1035459;28;19905;-65
2022/09/12 02:06:51;;;;;;;;;;;;;;;9.19;100.00;96024.41;1038890;28;20290;-66
2022/09/12 02:07:26;;;;;;;;;;;;;;;9.19;100.00;96016.56;1032503;28;19909;-66
2022/09/12 02:08:00;;;;;;;;;;;;;;;9.18;100.00;96020.19;1033675;28;19992;-66
2022/09/12 02:08:31;;;;;;;;;;;;;;;9.16;100.00;96014.44;1034620;28;20453;-65
2022/09/12 02:09:11;;;;;;;;;;;;;;;9.15;100.00;96020.72;1036067;28;20438;-66
2022/09/12 02:09:56;;;;;;;;;;;;;;;9.16;100.00;96019.66;1042355;28;19931;-66
2022/09/12 02:10:29;;;;;;;;;;;;;;;9.15;100.00;96025.94;1053965;28;19947;-66
2022/09/12 02:11:09;;;;;;;;;;;;;;;9.14;100.00;96018.31;1047300;28;20426;-67
2022/09/12 02:11:40;;;;;;;;;;;;;;;9.18;100.00;96024.66;1038770;28;19912;-66
2022/09/12 02:12:10;;;;;;;;;;;;;;;9.16;100.00;96011.81;1026842;28;20454;-65
2022/09/12 02:12:42;;;;;;;;;;;;;;;9.15;100.00;96017.28;1038742;28;19905;-66
2022/09/12 02:13:17;;;;;;;;;;;;;;;9.17;100.00;96015.22;1042842;28;20195;-65
2022/09/12 02:13:59;;;;;;;;;;;;;;;9.13;100.00;96012.31;1039905;28;19935;-66
2022/09/12 02:14:40;;;;;;;;;;;;;;;9.13;100.00;96017.53;1037104;28;19905;-63
2022/09/12 02:15:10;;;;;;;;;;;;;;;9.13;100.00;96014.94;1041334;28;19905;-66
2022/09/12 02:15:44;;;;;;;;;;;;;;;9.13;100.00;96016.75;1045721;28;19904;-66
2022/09/12 02:16:16;;;;;;;;;;;;;;;9.13;100.00;96019.38;1045335;28;19982;-67
2022/09/12 02:16:48;;;;;;;;;;;;;;;9.12;100.00;96015.97;1043640;28;20187;-65
2022/09/12 02:17:19;;;;;;;;;;;;;;;9.10;100.00;96015.41;1042755;28;19909;-68
2022/09/12 02:17:49;;;;;;;;;;;;;;;9.10;100.00;96010.19;1043812;28;19911;-66
2022/09/12 02:18:20;;;;;;;;;;;;;;;9.10;100.00;96020.66;1043250;28;19904;-65
2022/09/12 02:18:54;;;;;;;;;;;;;;;9.09;100.00;96011.22;1045947;28;19967;-66
2022/09/12 02:19:27;;;;;;;;;;;;;;;9.08;100.00;96017.47;1043491;28;20289;-67
2022/09/12 02:20:00;;;;;;;;;;;;;;;9.08;100.00;96016.69;1047933;28;19940;-66
2022/09/12 02:20:33;;;;;;;;;;;;;;;9.05;100.00;96012.72;1047017;28;19905;-66
2022/09/12 02:21:04;;;;;;;;;;;;;;;9.03;100.00;96020.06;1042669;28;19905;-67
2022/09/12 02:21:34;;;;;;;;;;;;;;;9.03;100.00;96008.78;1043614;28;19950;-66
2022/09/12 02:22:05;;;;;;;;;;;;;;;9.01;100.00;96006.41;1042968;28;19912;-66
2022/09/12 02:22:35;;;;;;;;;;;;;;;9.01;100.00;96001.19;1043273;28;20141;-68
2022/09/12 02:23:07;;;;;;;;;;;;;;;8.99;100.00;96008.50;1043163;28;19900;-66
2022/09/12 02:23:38;;;;;;;;;;;;;;;8.98;100.00;96006.91;1042917;28;19905;-65
2022/09/12 02:24:09;;;;;;;;;;;;;;;8.97;100.00;96005.31;1042978;28;19980;-66
2022/09/12 02:24:40;;;;;;;;;;;;;;;8.95;100.00;96013.44;1043364;28;20386;-66
2022/09/12 02:25:10;;;;;;;;;;;;;;;8.93;100.00;96005.03;1042637;28;19936;-66
2022/09/12 02:25:42;;;;;;;;;;;;;;;8.94;100.00;96000.56;1042567;28;20397;-66
2022/09/12 02:26:18;;;;;;;;;;;;;;;8.92;100.00;96003.44;1035156;28;19916;-66
2022/09/12 02:26:49;;;;;;;;;;;;;;;8.93;100.00;96007.66;1038809;28;20382;-65
2022/09/12 02:27:20;;;;;;;;;;;;;;;8.93;100.00;96005.03;1036935;28;20373;-65
2022/09/12 02:27:52;;;;;;;;;;;;;;;8.93;100.00;96004.25;1038838;28;19905;-65
2022/09/12 02:28:26;;;;;;;;;;;;;;;8.93;100.00;96005.03;1030551;28;19956;-66
2022/09/12 02:28:56;;;;;;;;;;;;;;;8.93;100.00;96009.47;1036554;28;19905;-65
2022/09/12 02:29:27;;;;;;;;;;;;;;;8.93;100.00;95999.78;1036098;28;20532;-66
2022/09/12 02:29:57;;;;;;;;;;;;;;;8.94;100.00;96011.03;1035171;28;20397;-66
2022/09/12 02:30:28;;;;;;;;;;;;;;;8.94;100.00;96011.03;1038150;28;19912;-65
2022/09/12 02:31:31;;;;;;;;;;;;;;;8.92;100.00;96010.50;1044053;28;19905;-66
2022/09/12 02:32:05;;;;;;;;;;;;;;;8.93;100.00;96014.72;1039338;28;19912;-66
2022/09/12 02:32:37;;;;;;;;;;;;;;;8.92;100.00;95995.59;1034713;28;19992;-66
2022/09/12 02:33:14;;;;;;;;;;;;;;;8.92;100.00;96000.03;1037817;28;20016;-66
2022/09/12 02:34:00;;;;;;;;;;;;;;;8.91;100.00;96003.69;1041170;28;19909;-66
2022/09/12 02:34:48;;;;;;;;;;;;;;;8.94;100.00;96000.56;1042133;28;19984;-66
2022/09/12 02:35:24;;;;;;;;;;;;;;;8.88;100.00;96006.78;1042818;28;19917;-65
2022/09/12 02:35:57;;;;;;;;;;;;;;;8.87;100.00;96006.00;1038525;28;19959;-66
2022/09/12 02:36:27;;;;;;;;;;;;;;;8.86;100.00;96001.03;1047183;28;19913;-65
2022/09/12 02:37:24;;;;;;;;;;;;;;;8.87;100.00;96005.22;1052239;28;19912;-66
2022/09/12 02:38:03;;;;;;;;;;;;;;;8.84;100.00;96008.31;1049575;27;20452;-66
2022/09/12 02:38:43;;;;;;;;;;;;;;;8.84;100.00;96008.31;1052044;28;20380;-66
2022/09/12 02:39:18;;;;;;;;;;;;;;;8.84;100.00;96005.69;1039391;28;19913;-66
2022/09/12 02:39:48;;;;;;;;;;;;;;;8.85;100.00;96009.88;1039695;28;19913;-65
2022/09/12 02:40:18;;;;;;;;;;;;;;;8.85;100.00;96004.66;1041693;28;19928;-66
2022/09/12 02:40:49;;;;;;;;;;;;;;;8.86;100.00;96008.88;1041008;28;20392;-66
2022/09/12 02:41:22;;;;;;;;;;;;;;;8.85;100.00;96002.03;1043649;28;19912;-67
2022/09/12 02:41:53;;;;;;;;;;;;;;;8.84;100.00;96010.94;1043808;28;19912;-66
2022/09/12 02:42:23;;;;;;;;;;;;;;;8.83;100.00;96004.13;1040242;28;19901;-65
2022/09/12 02:42:54;;;;;;;;;;;;;;;8.83;100.00;96004.13;1044833;28;19907;-66
2022/09/12 02:43:24;;;;;;;;;;;;;;;8.83;100.00;96006.75;1052160;28;20613;-65
2022/09/12 02:43:54;;;;;;;;;;;;;;;8.83;100.00;96001.50;1043738;28;19951;-65
2022/09/12 02:44:24;;;;;;;;;;;;;;;8.82;100.00;96005.13;1042636;28;19954;-65
2022/09/12 02:44:55;;;;;;;;;;;;;;;8.79;100.00;96003.81;1043920;28;19955;-68
2022/09/12 02:45:25;;;;;;;;;;;;;;;8.80;100.00;96007.22;1042883;28;19909;-66
2022/09/12 02:45:55;;;;;;;;;;;;;;;8.78;100.00;96002.22;1047684;28;19970;-65
2022/09/12 02:46:31;;;;;;;;;;;;;;;8.77;100.00;95999.88;1056433;28;19904;-65
2022/09/12 02:47:05;;;;;;;;;;;;;;;8.77;100.00;96002.47;1056747;28;20372;-67
2022/09/12 02:47:36;;;;;;;;;;;;;;;8.76;100.00;96004.31;1060525;27;20322;-67
2022/09/12 02:48:13;;;;;;;;;;;;;;;8.75;100.00;96002.72;1060434;27;19904;-66
2022/09/12 02:48:44;;;;;;;;;;;;;;;8.75;100.00;95997.47;1054625;28;20355;-66
2022/09/12 02:49:14;;;;;;;;;;;;;;;8.76;100.00;96000.91;1052183;28;19998;-65
2022/09/12 02:49:44;;;;;;;;;;;;;;;8.59;100.00;95966.97;1052058;28;19904;-66
2022/09/12 02:50:15;;;;;;;;;;;;;;;8.74;100.00;95995.91;1047786;28;19913;-66
2022/09/12 02:50:45;;;;;;;;;;;;;;;8.72;100.00;95998.78;1048019;28;19904;-66
2022/09/12 02:51:16;;;;;;;;;;;;;;;8.70;100.00;95994.81;1047669;28;19905;-66
2022/09/12 02:51:46;;;;;;;;;;;;;;;8.68;100.00;95997.66;1047947;28;19999;-66
2022/09/12 02:52:16;;;;;;;;;;;;;;;8.69;100.00;95999.25;1047752;28;19907;-66
2022/09/12 02:52:47;;;;;;;;;;;;;;;8.69;100.00;95991.41;1043585;28;20195;-66
2022/09/12 02:53:17;;;;;;;;;;;;;;;8.69;100.00;95994.03;1039857;28;19901;-66
2022/09/12 02:53:48;;;;;;;;;;;;;;;8.70;100.00;95993.00;1043685;28;19905;-66